Time;durP1;ratioP1;P1;durP2;ratioP2;P2;SDS_P1;SDS_P2;PMS_P1;PMS_P2;Temp;Humidity;BMP_temperature;BMP_pressure;BME280_temperature;BME280_humidity;BME280_pressure;Samples;Min_cycle;Max_cycle;Signal;HPM_P1;HPM_P2
2022/07/10 00:02:04;;;;;;;;;;;;;;;23.05;42.02;99924.31;4310258;33;19988;-87
2022/07/10 00:04:31;;;;;;;;;;;;;;;23.23;41.80;99911.41;4310452;33;19980;-88
2022/07/10 00:06:58;;;;;;;;;;;;;;;23.15;41.92;99917.81;4310273;33;20354;-88
2022/07/10 00:09:24;;;;;;;;;;;;;;;23.04;42.51;99912.06;4309765;33;20059;-88
2022/07/10 00:11:51;;;;;;;;;;;;;;;23.19;42.30;99919.41;4309700;33;19980;-86
2022/07/10 00:14:19;;;;;;;;;;;;;;;22.65;43.80;99907.13;4309819;33;20438;-88
2022/07/10 00:16:46;;;;;;;;;;;;;;;22.98;43.09;99904.34;4310382;33;20002;-87
2022/07/10 00:19:13;;;;;;;;;;;;;;;22.67;44.05;99915.88;4310348;33;19980;-87
2022/07/10 00:21:40;;;;;;;;;;;;;;;22.78;43.94;99912.88;4307068;32;19989;-87
2022/07/10 00:24:07;;;;;;;;;;;;;;;22.81;43.91;99917.19;4345024;32;20000;-87
2022/07/10 00:26:34;;;;;;;;;;;;;;;22.73;44.21;99920.94;4334424;32;20449;-88
2022/07/10 00:29:01;;;;;;;;;;;;;;;22.84;43.95;99922.38;4333073;33;19984;-88
2022/07/10 00:31:28;;;;;;;;;;;;;;;22.81;44.26;99923.31;4310466;32;20004;-88
2022/07/10 00:33:55;;;;;;;;;;;;;;;22.80;44.34;99920.75;4310011;33;20031;-87
2022/07/10 00:36:22;;;;;;;;;;;;;;;22.40;45.48;99919.38;4342400;32;20019;-87
2022/07/10 00:38:48;;;;;;;;;;;;;;;22.61;45.21;99913.41;4325031;33;20099;-87
2022/07/10 00:41:16;;;;;;;;;;;;;;;22.68;45.07;99907.03;4324668;33;20018;-86
2022/07/10 00:43:53;;;;;;;;;;;;;;;22.70;45.08;99913.12;4331239;32;20338;-87
2022/07/10 00:46:20;;;;;;;;;;;;;;;22.52;45.65;99909.28;4327034;32;20007;-86
2022/07/10 00:48:48;;;;;;;;;;;;;;;22.19;46.85;99913.84;4349605;32;20034;-86
2022/07/10 00:51:16;;;;;;;;;;;;;;;22.41;46.63;99916.69;4326928;33;20043;-87
2022/07/10 00:53:44;;;;;;;;;;;;;;;22.60;45.84;99909.06;4327184;33;19969;-86
2022/07/10 00:56:12;;;;;;;;;;;;;;;22.60;45.96;99908.22;4326272;33;20011;-87
2022/07/10 00:58:39;;;;;;;;;;;;;;;22.79;45.65;99908.47;4349527;32;20345;-88
2022/07/10 01:01:07;;;;;;;;;;;;;;;22.43;47.03;99914.00;4349797;32;19986;-88
2022/07/10 01:03:34;;;;;;;;;;;;;;;22.64;46.24;99910.69;4326671;33;20070;-88
2022/07/10 01:06:01;;;;;;;;;;;;;;;22.41;46.93;99907.94;4326629;33;20007;-88
2022/07/10 01:08:28;;;;;;;;;;;;;;;22.39;47.03;99900.03;4326886;33;20447;-87
2022/07/10 01:10:55;;;;;;;;;;;;;;;22.73;46.17;99898.97;4326759;33;20754;-87
2022/07/10 01:13:21;;;;;;;;;;;;;;;22.23;47.56;99910.22;4349529;32;20374;-87
2022/07/10 01:15:49;;;;;;;;;;;;;;;22.42;47.08;99909.66;4312289;32;20464;-85
2022/07/10 01:18:15;;;;;;;;;;;;;;;22.35;47.16;99913.41;4311575;33;19984;-86
2022/07/10 01:20:42;;;;;;;;;;;;;;;22.58;46.62;99905.59;4310436;33;19976;-86
2022/07/10 01:23:09;;;;;;;;;;;;;;;22.42;46.98;99915.78;4311609;33;19996;-87
2022/07/10 01:25:36;;;;;;;;;;;;;;;22.19;47.43;99916.50;4312061;33;20028;-87
2022/07/10 01:28:03;;;;;;;;;;;;;;;22.12;47.75;99912.28;4311904;33;20008;-87
2022/07/10 01:30:31;;;;;;;;;;;;;;;22.00;48.30;99912.66;4311574;33;19976;-85
2022/07/10 01:32:57;;;;;;;;;;;;;;;22.38;47.15;99913.28;4312136;33;20055;-86
2022/07/10 01:35:24;;;;;;;;;;;;;;;22.35;47.25;99913.41;4311947;33;20334;-87
2022/07/10 01:37:51;;;;;;;;;;;;;;;22.00;48.65;99907.38;4310454;33;20728;-88
2022/07/10 01:40:18;;;;;;;;;;;;;;;22.01;48.31;99903.81;4311811;33;19995;-89
2022/07/10 01:42:45;;;;;;;;;;;;;;;22.15;47.87;99906.94;4311854;33;20060;-89
2022/07/10 01:45:12;;;;;;;;;;;;;;;21.95;48.49;99904.91;4310437;33;19998;-89
2022/07/10 01:47:39;;;;;;;;;;;;;;;22.10;47.90;99898.28;4311839;33;20055;-86
2022/07/10 01:50:06;;;;;;;;;;;;;;;22.14;47.68;99894.63;4311694;33;20319;-88
2022/07/10 01:52:33;;;;;;;;;;;;;;;22.16;47.67;99898.12;4341838;32;20804;-88
2022/07/10 01:55:00;;;;;;;;;;;;;;;22.07;47.97;99893.09;4325322;33;19987;-88
2022/07/10 01:57:27;;;;;;;;;;;;;;;22.18;47.60;99885.78;4349600;32;20004;-88
2022/07/10 01:59:54;;;;;;;;;;;;;;;22.17;47.66;99884.03;4326821;33;19976;-89
2022/07/10 02:02:21;;;;;;;;;;;;;;;22.03;48.00;99879.16;4326154;33;20338;-89
2022/07/10 02:04:48;;;;;;;;;;;;;;;22.09;47.52;99878.09;4326180;32;20034;-88
2022/07/10 02:07:18;;;;;;;;;;;;;;;21.78;48.56;99876.38;4317664;32;19984;-88
2022/07/10 02:09:45;;;;;;;;;;;;;;;21.97;47.73;99881.09;4311764;33;20035;-87
2022/07/10 02:12:13;;;;;;;;;;;;;;;21.93;47.99;99879.47;4311757;33;20373;-89
2022/07/10 02:14:41;;;;;;;;;;;;;;;22.14;47.32;99883.22;4317543;32;20033;-89
2022/07/10 02:17:08;;;;;;;;;;;;;;;21.62;48.81;99875.09;4334085;32;20055;-88
2022/07/10 02:19:35;;;;;;;;;;;;;;;21.81;48.24;99875.44;4326403;33;19988;-89
2022/07/10 02:22:02;;;;;;;;;;;;;;;21.94;47.79;99886.47;4326423;33;20013;-88
2022/07/10 02:24:29;;;;;;;;;;;;;;;21.94;47.78;99882.06;4326044;33;20043;-88
2022/07/10 02:26:56;;;;;;;;;;;;;;;21.95;47.73;99873.25;4326487;33;20023;-88
2022/07/10 02:29:24;;;;;;;;;;;;;;;21.87;48.09;99879.66;4326423;33;19999;-87
2022/07/10 02:31:53;;;;;;;;;;;;;;;21.90;48.00;99879.56;4325983;33;20427;-88
2022/07/10 02:34:20;;;;;;;;;;;;;;;21.84;48.32;99885.88;4326465;33;20400;-88
2022/07/10 02:36:47;;;;;;;;;;;;;;;22.00;47.78;99881.88;4326242;33;19983;-86
2022/07/10 02:39:14;;;;;;;;;;;;;;;22.16;47.37;99871.75;4326027;33;19980;-86
2022/07/10 02:41:41;;;;;;;;;;;;;;;22.01;47.71;99867.78;4326123;33;19976;-87
2022/07/10 02:44:08;;;;;;;;;;;;;;;22.01;47.96;99877.47;4324121;32;20034;-88
2022/07/10 02:46:35;;;;;;;;;;;;;;;21.96;47.97;99880.25;4325800;32;19988;-89
2022/07/10 02:49:04;;;;;;;;;;;;;;;21.76;48.56;99867.69;4325843;33;19975;-86
2022/07/10 02:51:30;;;;;;;;;;;;;;;21.86;48.33;99864.75;4325914;33;20261;-86
2022/07/10 02:53:58;;;;;;;;;;;;;;;21.72;48.82;99871.28;4326096;33;20081;-85
2022/07/10 02:56:25;;;;;;;;;;;;;;;21.76;48.60;99872.06;4348958;32;19987;-88
2022/07/10 02:58:52;;;;;;;;;;;;;;;21.94;48.00;99873.28;4348976;32;20003;-87
2022/07/10 03:01:18;;;;;;;;;;;;;;;21.98;47.85;99882.81;4322240;32;20349;-86
2022/07/10 03:03:46;;;;;;;;;;;;;;;21.66;48.64;99860.91;4332086;32;20000;-86
2022/07/10 03:06:13;;;;;;;;;;;;;;;21.40;49.67;99868.72;4340809;32;19991;-87
2022/07/10 03:08:40;;;;;;;;;;;;;;;21.73;48.54;99870.41;4325879;33;19994;-88
2022/07/10 03:11:07;;;;;;;;;;;;;;;21.62;48.92;99874.25;4325951;33;19983;-85
2022/07/10 03:13:34;;;;;;;;;;;;;;;21.59;49.08;99869.91;4326278;33;20002;-85
2022/07/10 03:16:01;;;;;;;;;;;;;;;21.61;48.98;99862.84;4325577;33;20020;-87
2022/07/10 03:18:28;;;;;;;;;;;;;;;21.52;49.24;99865.75;4325982;33;19980;-86
2022/07/10 03:20:55;;;;;;;;;;;;;;;21.58;49.12;99863.78;4331806;32;20791;-87
2022/07/10 03:23:22;;;;;;;;;;;;;;;21.41;49.54;99860.78;4325861;33;20039;-86
2022/07/10 03:25:49;;;;;;;;;;;;;;;21.53;49.32;99855.13;4329245;32;19987;-87
2022/07/10 03:28:19;;;;;;;;;;;;;;;21.37;50.07;99859.97;4325883;33;19972;-86
2022/07/10 03:30:46;;;;;;;;;;;;;;;21.32;49.95;99867.12;4348474;32;20008;-86
2022/07/10 03:33:13;;;;;;;;;;;;;;;21.28;50.16;99854.97;4326046;33;20035;-85
2022/07/10 03:35:39;;;;;;;;;;;;;;;21.12;50.77;99858.88;4325444;33;20034;-85
2022/07/10 03:38:06;;;;;;;;;;;;;;;21.27;50.61;99847.94;4325649;33;20007;-86
2022/07/10 03:40:33;;;;;;;;;;;;;;;21.35;50.42;99843.38;4325700;33;20514;-87
2022/07/10 03:43:00;;;;;;;;;;;;;;;21.41;50.22;99841.47;4325951;33;20029;-87
2022/07/10 03:45:27;;;;;;;;;;;;;;;21.54;49.66;99845.50;4325396;33;20063;-87
2022/07/10 03:47:54;;;;;;;;;;;;;;;21.15;51.01;99843.00;4325805;33;20026;-86
2022/07/10 03:50:21;;;;;;;;;;;;;;;21.48;49.91;99829.88;4325303;33;19975;-87
2022/07/10 03:52:47;;;;;;;;;;;;;;;21.46;50.06;99839.56;4333688;32;20043;-87
2022/07/10 03:55:14;;;;;;;;;;;;;;;21.41;50.39;99844.09;4348190;32;20051;-87
2022/07/10 03:57:53;;;;;;;;;;;;;;;21.52;49.97;99847.31;4320968;32;20518;-88
2022/07/10 04:00:24;;;;;;;;;;;;;;;21.39;50.51;99848.56;4330067;32;19983;-88
2022/07/10 04:02:57;;;;;;;;;;;;;;;21.14;51.15;99843.94;4325593;33;20177;-88
2022/07/10 04:05:25;;;;;;;;;;;;;;;21.34;50.72;99831.06;4348384;32;19980;-87
2022/07/10 04:07:52;;;;;;;;;;;;;;;21.44;50.50;99838.75;4323336;32;20540;-87
2022/07/10 04:10:19;;;;;;;;;;;;;;;21.27;50.86;99832.16;4325797;33;20356;-86
2022/07/10 04:12:46;;;;;;;;;;;;;;;21.07;51.62;99834.47;4323637;33;20972;-86
2022/07/10 04:15:13;;;;;;;;;;;;;;;21.21;51.41;99836.72;4323981;33;20088;-86
2022/07/10 04:17:40;;;;;;;;;;;;;;;21.20;51.34;99835.00;4325002;33;19975;-87
2022/07/10 04:20:07;;;;;;;;;;;;;;;21.12;51.59;99837.84;4325579;33;20331;-85
2022/07/10 04:22:34;;;;;;;;;;;;;;;21.20;51.33;99830.59;4327223;33;20023;-84
2022/07/10 04:25:01;;;;;;;;;;;;;;;21.03;51.88;99822.31;4326802;33;20400;-87
2022/07/10 04:27:27;;;;;;;;;;;;;;;20.85;52.53;99829.78;4327172;33;20047;-87
2022/07/10 04:29:54;;;;;;;;;;;;;;;20.92;52.48;99824.34;4327140;33;19981;-84
2022/07/10 04:32:21;;;;;;;;;;;;;;;21.17;51.72;99825.41;4326980;33;19998;-81
2022/07/10 04:34:48;;;;;;;;;;;;;;;21.08;52.07;99817.78;4325480;32;19991;-85
2022/07/10 04:37:15;;;;;;;;;;;;;;;20.71;53.47;99810.87;4327722;33;19984;-84
2022/07/10 04:39:42;;;;;;;;;;;;;;;20.85;52.80;99821.03;4326536;33;20043;-82
2022/07/10 04:42:09;;;;;;;;;;;;;;;20.97;52.44;99822.47;4337772;32;20006;-86
2022/07/10 04:44:36;;;;;;;;;;;;;;;21.16;51.95;99818.44;4326581;33;19988;-85
2022/07/10 04:47:03;;;;;;;;;;;;;;;21.03;52.22;99810.00;4326675;33;20792;-85
2022/07/10 04:49:30;;;;;;;;;;;;;;;20.72;53.30;99809.97;4325684;33;19998;-84
2022/07/10 04:51:57;;;;;;;;;;;;;;;20.89;52.93;99799.84;4326482;33;20002;-84
2022/07/10 04:54:24;;;;;;;;;;;;;;;20.87;53.15;99812.19;4329074;32;20325;-85
2022/07/10 04:56:51;;;;;;;;;;;;;;;20.88;52.91;99808.66;4326489;33;19975;-85
2022/07/10 04:59:18;;;;;;;;;;;;;;;20.96;53.08;99810.19;4326758;32;19993;-85
2022/07/10 05:01:45;;;;;;;;;;;;;;;21.22;51.89;99802.47;4350013;32;20035;-85
2022/07/10 05:04:12;;;;;;;;;;;;;;;21.23;51.82;99801.56;4327156;33;20011;-85
2022/07/10 05:06:39;;;;;;;;;;;;;;;21.14;52.21;99804.44;4326147;33;20432;-85
2022/07/10 05:09:06;;;;;;;;;;;;;;;21.03;53.03;99812.66;4326837;33;19984;-86
2022/07/10 05:11:33;;;;;;;;;;;;;;;21.15;52.29;99806.16;4326607;33;20464;-85
2022/07/10 05:14:00;;;;;;;;;;;;;;;21.18;52.61;99807.84;4326384;33;19992;-87
2022/07/10 05:16:27;;;;;;;;;;;;;;;21.39;51.74;99814.31;4316111;32;19992;-86
2022/07/10 05:18:54;;;;;;;;;;;;;;;21.37;51.63;99812.56;4335302;32;20035;-86
2022/07/10 05:21:21;;;;;;;;;;;;;;;21.05;52.85;99809.97;4311852;33;19995;-84
2022/07/10 05:23:48;;;;;;;;;;;;;;;21.19;52.45;99813.09;4311746;33;19992;-85
2022/07/10 05:26:15;;;;;;;;;;;;;;;21.19;52.24;99806.97;4297873;33;19988;-83
2022/07/10 05:28:42;;;;;;;;;;;;;;;20.98;53.15;99808.41;4311152;32;19988;-84
2022/07/10 05:31:09;;;;;;;;;;;;;;;21.08;52.65;99809.87;4310706;33;19996;-84
2022/07/10 05:33:38;;;;;;;;;;;;;;;21.17;52.31;99807.00;4311574;33;20015;-84
2022/07/10 05:36:06;;;;;;;;;;;;;;;20.86;53.55;99799.06;4320963;33;20040;-84
2022/07/10 05:38:32;;;;;;;;;;;;;;;21.12;53.08;99793.09;4297217;33;20353;-85
2022/07/10 05:40:59;;;;;;;;;;;;;;;21.30;52.17;99800.47;4297093;33;20008;-84
2022/07/10 05:43:26;;;;;;;;;;;;;;;21.22;52.04;99789.31;4304315;33;19992;-86
2022/07/10 05:45:54;;;;;;;;;;;;;;;21.34;51.85;99788.94;4334406;33;19993;-84
2022/07/10 05:48:25;;;;;;;;;;;;;;;21.70;50.69;99791.44;4312010;33;19984;-84
2022/07/10 05:50:52;;;;;;;;;;;;;;;21.77;50.35;99795.63;4322601;32;19987;-83
2022/07/10 05:53:19;;;;;;;;;;;;;;;21.61;51.14;99783.81;4311588;33;20002;-83
2022/07/10 05:55:46;;;;;;;;;;;;;;;21.89;50.30;99782.94;4311702;33;19976;-84
2022/07/10 05:58:14;;;;;;;;;;;;;;;21.85;50.64;99787.47;4311538;33;19984;-85
2022/07/10 06:00:43;;;;;;;;;;;;;;;21.97;49.85;99786.22;4319623;32;19980;-85
2022/07/10 06:03:10;;;;;;;;;;;;;;;21.90;49.97;99784.69;4330924;33;19984;-86
2022/07/10 06:05:37;;;;;;;;;;;;;;;21.88;50.24;99789.13;4306734;33;20015;-86
2022/07/10 06:08:04;;;;;;;;;;;;;;;22.05;50.20;99787.72;4310201;33;20036;-86
2022/07/10 06:10:32;;;;;;;;;;;;;;;22.29;49.32;99783.44;4312423;33;20051;-85
2022/07/10 06:12:58;;;;;;;;;;;;;;;22.17;49.22;99789.09;4312648;33;20002;-85
2022/07/10 06:15:25;;;;;;;;;;;;;;;22.20;49.84;99786.38;4323949;33;19997;-85
2022/07/10 06:17:55;;;;;;;;;;;;;;;22.84;47.00;99782.47;4321930;33;20035;-86
2022/07/10 06:20:22;;;;;;;;;;;;;;;22.69;48.19;99782.09;4325932;33;20006;-87
2022/07/10 06:22:49;;;;;;;;;;;;;;;22.93;48.36;99784.78;4326374;33;19988;-86
2022/07/10 06:25:16;;;;;;;;;;;;;;;23.58;46.10;99773.63;4325792;33;19980;-86
2022/07/10 06:27:43;;;;;;;;;;;;;;;23.87;45.70;99780.44;4326013;33;19998;-86
2022/07/10 06:30:10;;;;;;;;;;;;;;;24.24;44.16;99784.22;4324910;33;20006;-86
2022/07/10 06:32:38;;;;;;;;;;;;;;;24.66;42.65;99787.81;4326008;33;19988;-85
2022/07/10 06:35:06;;;;;;;;;;;;;;;24.85;41.57;99786.09;4326184;33;20473;-86
2022/07/10 06:37:33;;;;;;;;;;;;;;;24.87;41.39;99789.53;4326352;33;20010;-86
2022/07/10 06:40:01;;;;;;;;;;;;;;;24.95;41.05;99781.25;4326447;33;20293;-83
2022/07/10 06:42:27;;;;;;;;;;;;;;;25.09;40.79;99778.03;4294859;32;20063;-84
2022/07/10 06:44:57;;;;;;;;;;;;;;;24.93;41.53;99783.12;4297219;33;19976;-87
2022/07/10 06:50:10;;;;;;;;;;;;;;;25.30;41.41;99782.34;4295536;33;19996;-85
2022/07/10 06:52:37;;;;;;;;;;;;;;;25.60;40.02;99780.09;4297289;33;20018;-85
2022/07/10 06:55:04;;;;;;;;;;;;;;;25.84;39.77;99788.69;4296492;33;20000;-86
2022/07/10 06:57:31;;;;;;;;;;;;;;;26.16;38.29;99778.31;4296870;33;20016;-86
2022/07/10 06:59:58;;;;;;;;;;;;;;;26.58;37.10;99774.50;4319765;33;20040;-86
2022/07/10 07:02:25;;;;;;;;;;;;;;;26.31;38.22;99772.25;4319909;33;19984;-85
2022/07/10 07:04:52;;;;;;;;;;;;;;;26.59;37.15;99776.22;4297081;33;19969;-87
2022/07/10 07:07:19;;;;;;;;;;;;;;;26.48;37.61;99778.53;4287681;33;20003;-85
2022/07/10 07:09:51;;;;;;;;;;;;;;;26.29;37.81;99779.47;4307974;33;20055;-87
2022/07/10 07:12:19;;;;;;;;;;;;;;;26.33;36.63;99775.72;4297168;33;20090;-86
2022/07/10 07:14:47;;;;;;;;;;;;;;;26.34;36.78;99781.88;4319442;33;19976;-87
2022/07/10 07:17:21;;;;;;;;;;;;;;;27.02;34.99;99773.97;4296622;33;20012;-85
2022/07/10 07:25:20;;;;;;;;;;;;;;;26.82;35.55;99773.22;4315733;33;19976;-84
2022/07/10 07:27:47;;;;;;;;;;;;;;;27.15;35.06;99772.41;4318807;33;20745;-83
2022/07/10 07:30:14;;;;;;;;;;;;;;;27.02;35.46;99771.31;4295498;33;20004;-83
2022/07/10 07:32:42;;;;;;;;;;;;;;;27.22;35.42;99771.16;4296108;33;19980;-82
2022/07/10 07:35:09;;;;;;;;;;;;;;;27.47;35.00;99775.13;4296723;33;19996;-82
2022/07/10 07:37:40;;;;;;;;;;;;;;;27.42;33.78;99779.87;4297316;33;20039;-83
2022/07/10 07:40:09;;;;;;;;;;;;;;;27.68;32.66;99767.78;4296460;33;20399;-82
2022/07/10 07:42:36;;;;;;;;;;;;;;;28.06;31.46;99768.31;4319274;33;20453;-82
2022/07/10 07:45:03;;;;;;;;;;;;;;;27.92;32.63;99770.88;4295869;33;20028;-82
2022/07/10 07:47:31;;;;;;;;;;;;;;;28.22;32.10;99769.12;4294616;33;20020;-82
2022/07/10 07:50:02;;;;;;;;;;;;;;;28.37;30.51;99766.53;4317255;33;20087;-83
2022/07/10 07:52:31;;;;;;;;;;;;;;;28.36;30.45;99791.44;4302220;33;20022;-83
2022/07/10 07:54:59;;;;;;;;;;;;;;;28.28;31.61;99789.22;4320273;33;19991;-80
2022/07/10 07:57:26;;;;;;;;;;;;;;;27.85;33.15;99780.16;4325073;32;20386;-81
2022/07/10 07:59:53;;;;;;;;;;;;;;;28.29;31.80;99775.81;4324237;33;20035;-82
2022/07/10 08:02:21;;;;;;;;;;;;;;;28.57;31.99;99784.88;4324320;32;20433;-81
2022/07/10 08:04:48;;;;;;;;;;;;;;;28.60;31.67;99775.84;4325808;33;20031;-84
2022/07/10 08:07:15;;;;;;;;;;;;;;;28.83;29.75;99774.47;4325688;33;19987;-82
2022/07/10 08:09:44;;;;;;;;;;;;;;;28.78;29.35;99776.53;4325480;33;20004;-86
2022/07/10 08:12:11;;;;;;;;;;;;;;;28.86;29.38;99768.97;4325794;33;19994;-84
2022/07/10 08:14:38;;;;;;;;;;;;;;;28.93;29.52;99771.16;4325434;33;20003;-81
2022/07/10 08:17:05;;;;;;;;;;;;;;;28.77;30.88;99769.50;4325095;33;20083;-81
2022/07/10 08:19:32;;;;;;;;;;;;;;;28.86;30.00;99779.63;4325433;33;20031;-87
2022/07/10 08:21:59;;;;;;;;;;;;;;;29.05;29.93;99774.91;4325437;33;20345;-85
2022/07/10 08:24:26;;;;;;;;;;;;;;;29.34;28.68;99769.56;4325011;33;19976;-84
2022/07/10 08:26:55;;;;;;;;;;;;;;;29.38;28.65;99760.41;4347828;32;20014;-88
2022/07/10 08:29:22;;;;;;;;;;;;;;;29.16;29.69;99766.22;4324780;33;19984;-85
2022/07/10 08:31:49;;;;;;;;;;;;;;;29.50;29.01;99770.31;4325170;33;20039;-86
2022/07/10 08:34:16;;;;;;;;;;;;;;;29.58;28.69;99762.69;4336030;33;19968;-86
2022/07/10 08:36:43;;;;;;;;;;;;;;;29.74;28.16;99769.72;4323537;33;20405;-86
2022/07/10 08:39:20;;;;;;;;;;;;;;;29.68;28.40;99767.47;4325370;33;19980;-84
2022/07/10 08:41:50;;;;;;;;;;;;;;;29.58;29.22;99768.03;4324842;33;20039;-85
2022/07/10 08:44:18;;;;;;;;;;;;;;;29.97;26.52;99762.91;4324994;33;19987;-84
2022/07/10 08:46:45;;;;;;;;;;;;;;;30.01;27.09;99765.25;4324806;33;19984;-84
2022/07/10 08:49:13;;;;;;;;;;;;;;;29.69;26.62;99764.69;4324844;33;20039;-85
2022/07/10 08:51:41;;;;;;;;;;;;;;;29.40;27.42;99762.03;4325008;33;20322;-86
2022/07/10 08:54:08;;;;;;;;;;;;;;;29.38;27.78;99771.09;4335575;32;19998;-84
2022/07/10 08:56:36;;;;;;;;;;;;;;;29.36;28.51;99767.69;4324559;33;20043;-84
2022/07/10 08:59:04;;;;;;;;;;;;;;;29.39;27.52;99762.16;4323347;33;20270;-85
2022/07/10 09:01:32;;;;;;;;;;;;;;;29.41;27.19;99770.91;4319499;32;20286;-82
2022/07/10 09:03:59;;;;;;;;;;;;;;;29.47;26.50;99757.19;4345591;32;20419;-85
2022/07/10 09:06:29;;;;;;;;;;;;;;;29.59;25.90;99743.06;4327096;33;20028;-81
2022/07/10 09:09:07;;;;;;;;;;;;;;;28.90;28.96;99750.00;4327150;33;20302;-84
2022/07/10 09:11:35;;;;;;;;;;;;;;;29.62;26.40;99742.91;4326935;33;19984;-82
2022/07/10 09:14:04;;;;;;;;;;;;;;;29.40;26.63;99742.53;4326806;33;19980;-82
2022/07/10 09:16:32;;;;;;;;;;;;;;;29.60;26.37;99750.13;4326730;33;20322;-83
2022/07/10 09:19:15;;;;;;;;;;;;;;;29.48;26.27;99745.53;4315134;32;19995;-82
2022/07/10 09:21:44;;;;;;;;;;;;;;;29.44;26.12;99754.69;4312547;33;20014;-84
2022/07/10 09:24:12;;;;;;;;;;;;;;;29.76;26.04;99749.16;4305596;33;19988;-84
2022/07/10 09:26:39;;;;;;;;;;;;;;;29.60;25.72;99755.47;4326868;33;20144;-83
2022/07/10 09:29:08;;;;;;;;;;;;;;;29.53;25.44;99748.78;4350425;32;20036;-83
2022/07/10 09:31:53;;;;;;;;;;;;;;;29.97;25.38;99753.09;4325686;33;20326;-82
2022/07/10 09:34:39;;;;;;;;;;;;;;;29.44;27.20;99752.03;4326366;33;19987;-85
2022/07/10 09:37:29;;;;;;;;;;;;;;;29.74;25.50;99751.03;4337384;33;20396;-81
2022/07/10 09:40:00;;;;;;;;;;;;;;;29.98;25.12;99744.13;4326566;33;19983;-82
2022/07/10 09:42:33;;;;;;;;;;;;;;;29.81;26.76;99741.72;4313052;33;20038;-84
2022/07/10 09:45:12;;;;;;;;;;;;;;;29.46;27.91;99747.47;4326539;32;20007;-81
2022/07/10 09:47:40;;;;;;;;;;;;;;;29.57;27.69;99755.63;4326584;33;19998;-83
2022/07/10 09:50:25;;;;;;;;;;;;;;;29.49;27.46;99752.59;4327079;33;20306;-82
2022/07/10 09:52:53;;;;;;;;;;;;;;;29.56;26.07;99753.91;4325634;32;19984;-81
2022/07/10 09:55:21;;;;;;;;;;;;;;;29.81;26.51;99749.72;4326517;33;19976;-82
2022/07/10 09:57:57;;;;;;;;;;;;;;;29.89;26.18;99740.22;4349696;32;20334;-82
2022/07/10 10:00:45;;;;;;;;;;;;;;;29.35;28.23;99752.59;4335514;33;20475;-83
2022/07/10 10:03:14;;;;;;;;;;;;;;;29.58;27.18;99736.03;4335739;32;20078;-84
2022/07/10 10:05:45;;;;;;;;;;;;;;;29.98;25.32;99727.25;4349442;32;20449;-84
2022/07/10 10:08:13;;;;;;;;;;;;;;;29.45;29.37;99719.06;4349299;32;19987;-84
2022/07/10 10:10:43;;;;;;;;;;;;;;;29.87;25.76;99725.28;4337491;33;19984;-84
2022/07/10 10:13:10;;;;;;;;;;;;;;;29.86;25.39;99718.22;4326339;33;19999;-82
2022/07/10 10:15:37;;;;;;;;;;;;;;;29.73;25.66;99709.31;4326106;33;19990;-84
2022/07/10 10:18:05;;;;;;;;;;;;;;;29.76;25.79;99706.44;4326418;33;19980;-84
2022/07/10 10:20:41;;;;;;;;;;;;;;;29.85;25.30;99705.84;4349674;32;19975;-84
2022/07/10 10:23:12;;;;;;;;;;;;;;;29.92;25.28;99716.97;4326409;33;20002;-83
2022/07/10 10:25:40;;;;;;;;;;;;;;;29.87;24.72;99693.28;4336388;32;20621;-84
2022/07/10 10:28:08;;;;;;;;;;;;;;;29.68;26.34;99693.63;4325477;32;20003;-83
2022/07/10 10:30:43;;;;;;;;;;;;;;;29.63;24.87;99701.06;4347840;32;19988;-83
2022/07/10 10:33:28;;;;;;;;;;;;;;;29.64;25.39;99692.97;4349389;32;20491;-83
2022/07/10 10:35:55;;;;;;;;;;;;;;;29.95;22.63;99696.25;4328950;32;20035;-83
2022/07/10 10:38:23;;;;;;;;;;;;;;;29.88;24.18;99686.97;4325074;33;19988;-83
2022/07/10 10:40:50;;;;;;;;;;;;;;;29.83;24.89;99686.41;4326525;33;20019;-84
2022/07/10 10:43:17;;;;;;;;;;;;;;;29.61;26.07;99693.16;4326279;33;19984;-83
2022/07/10 10:45:45;;;;;;;;;;;;;;;29.43;25.72;99689.00;4326478;33;20071;-83
2022/07/10 10:48:15;;;;;;;;;;;;;;;29.77;25.35;99692.12;4324541;32;20000;-83
2022/07/10 10:51:02;;;;;;;;;;;;;;;29.80;25.71;99697.28;4318165;33;19984;-83
2022/07/10 10:53:31;;;;;;;;;;;;;;;30.02;25.64;99692.22;4311733;33;20015;-83
2022/07/10 10:56:03;;;;;;;;;;;;;;;29.94;26.78;99697.22;4311437;33;19999;-83
2022/07/10 10:58:37;;;;;;;;;;;;;;;29.95;26.03;99690.94;4311630;33;19999;-83
2022/07/10 11:01:32;;;;;;;;;;;;;;;29.74;27.29;99687.87;4321338;32;19995;-83
2022/07/10 11:04:09;;;;;;;;;;;;;;;29.68;26.34;99687.44;4326202;33;20743;-84
2022/07/10 11:06:42;;;;;;;;;;;;;;;29.36;25.02;99693.00;4325705;33;19994;-84
2022/07/10 11:09:26;;;;;;;;;;;;;;;29.54;25.60;99681.13;4325903;33;20741;-84
2022/07/10 11:12:00;;;;;;;;;;;;;;;29.35;24.85;99680.63;4348801;32;19984;-84
2022/07/10 11:14:28;;;;;;;;;;;;;;;29.32;26.58;99675.47;4336773;33;20002;-85
2022/07/10 11:16:55;;;;;;;;;;;;;;;29.70;24.00;99665.00;4325261;33;20349;-84
2022/07/10 11:19:23;;;;;;;;;;;;;;;29.65;25.04;99684.00;4325904;33;20007;-86
2022/07/10 11:22:08;;;;;;;;;;;;;;;29.22;25.22;99671.69;4348586;32;19979;-86
2022/07/10 11:24:44;;;;;;;;;;;;;;;28.36;27.20;99695.56;4348729;32;20011;-86
2022/07/10 11:27:30;;;;;;;;;;;;;;;28.28;28.52;99710.22;4325699;33;20019;-85
2022/07/10 11:29:58;;;;;;;;;;;;;;;28.39;27.33;99700.72;4348837;32;19987;-85
2022/07/10 11:32:25;;;;;;;;;;;;;;;28.46;26.96;99718.06;4336760;33;19992;-84
2022/07/10 11:34:53;;;;;;;;;;;;;;;28.39;26.69;99722.03;4334879;32;20329;-84
2022/07/10 11:37:20;;;;;;;;;;;;;;;28.20;27.07;99723.09;4347656;32;20038;-85
2022/07/10 11:39:47;;;;;;;;;;;;;;;27.90;27.05;99719.59;4342470;32;20034;-84
2022/07/10 11:42:14;;;;;;;;;;;;;;;27.57;27.64;99733.81;4335814;32;19991;-84
2022/07/10 11:44:41;;;;;;;;;;;;;;;27.49;27.85;99717.41;4325231;33;19992;-84
2022/07/10 11:47:08;;;;;;;;;;;;;;;27.03;28.98;99717.25;4325216;33;19975;-84
2022/07/10 11:49:40;;;;;;;;;;;;;;;26.97;28.99;99721.09;4324309;33;19999;-83
2022/07/10 11:52:08;;;;;;;;;;;;;;;26.72;30.12;99713.56;4324420;33;20326;-85
2022/07/10 11:54:37;;;;;;;;;;;;;;;26.57;31.67;99699.28;4301177;33;797874;-84
2022/07/10 11:57:05;;;;;;;;;;;;;;;26.67;31.81;99692.59;4324985;33;20423;-84
2022/07/10 11:59:32;;;;;;;;;;;;;;;26.88;31.32;99703.84;4323685;33;20143;-84
2022/07/10 12:01:59;;;;;;;;;;;;;;;27.14;31.18;99698.97;4325337;33;20338;-84
2022/07/10 12:04:28;;;;;;;;;;;;;;;27.17;30.30;99696.13;4324681;33;20015;-84
2022/07/10 12:06:55;;;;;;;;;;;;;;;27.39;29.55;99698.47;4324708;33;19998;-84
2022/07/10 12:09:23;;;;;;;;;;;;;;;27.56;29.65;99684.22;4325162;33;20022;-84
2022/07/10 12:11:59;;;;;;;;;;;;;;;27.64;29.81;99708.59;4324646;33;19988;-84
2022/07/10 12:14:26;;;;;;;;;;;;;;;27.90;26.15;99692.97;4317965;32;20333;-84
2022/07/10 12:16:53;;;;;;;;;;;;;;;28.13;27.17;99673.84;4317460;33;19972;-84
2022/07/10 12:19:25;;;;;;;;;;;;;;;28.33;27.72;99685.09;4317836;33;19984;-83
2022/07/10 12:21:52;;;;;;;;;;;;;;;28.28;25.67;99688.91;4319943;33;20007;-84
2022/07/10 12:24:24;;;;;;;;;;;;;;;28.41;25.56;99688.22;4323876;33;20003;-84
2022/07/10 12:26:52;;;;;;;;;;;;;;;28.58;25.67;99685.38;4324156;32;20010;-85
2022/07/10 12:29:19;;;;;;;;;;;;;;;28.47;26.08;99698.50;4323749;33;20031;-85
2022/07/10 12:31:47;;;;;;;;;;;;;;;28.56;26.41;99711.25;4334421;33;19987;-83
2022/07/10 12:34:14;;;;;;;;;;;;;;;28.23;27.08;99696.31;4315575;33;19996;-84
2022/07/10 12:37:04;;;;;;;;;;;;;;;28.31;28.97;99692.34;4315743;33;20290;-84
2022/07/10 12:39:31;;;;;;;;;;;;;;;28.67;27.07;99695.47;4315546;33;20019;-83
2022/07/10 12:41:58;;;;;;;;;;;;;;;28.44;26.33;99698.69;4319139;33;19984;-84
2022/07/10 12:44:35;;;;;;;;;;;;;;;28.35;25.72;99715.19;4318517;33;19988;-83
2022/07/10 12:47:03;;;;;;;;;;;;;;;28.11;25.40;99718.34;4341538;32;19990;-84
2022/07/10 12:49:30;;;;;;;;;;;;;;;27.71;26.81;99715.28;4317535;33;19995;-84
2022/07/10 12:51:59;;;;;;;;;;;;;;;27.53;27.36;99716.31;4317190;32;20369;-84
2022/07/10 12:54:42;;;;;;;;;;;;;;;27.43;27.93;99725.75;4318734;33;20326;-85
2022/07/10 12:57:08;;;;;;;;;;;;;;;27.09;27.75;99720.44;4319276;33;19990;-85
2022/07/10 12:59:36;;;;;;;;;;;;;;;27.07;27.16;99729.44;4318745;33;20411;-84
2022/07/10 13:02:33;;;;;;;;;;;;;;;26.87;27.64;99712.78;3415507;32;10000993;-84